Wales, AK

12:54 AM AKDT on November 01, 2014 (GMT -0800)
Tin City LRRS | Change Station
CLOSE
Current Station
Airport
Location: Tin City,
Elevation: 272 ft
Nearby Weather Stations
Active Advisory: Special Statement

Elev 272 ft 65.56 °N, 167.92 °W | Updated 59 minutes ago

Clear
Clear
11 °F
Feels Like -10 °F
N
26
Wind Variable Wind from NE

Today
High -- | Low -- °F
--% Chance of Precip.
Yesterday
High -- | Low -- °F
Precip. -- in
11:04 AM 6:44 PM
Waxing Gibbous, 64% visible
Pressure 29.49 in
Visibility 10.0 miles
Clouds Clear
Windchill -10 °F
Dew Point 6 °F
Humidity 81%
Rainfall 0.00 in
Snow Depth Not available.
UV 0 out of 12
Pollen Not available.
Air Quality Not available.
Flu Activity Not available.
METAR PATC 010755Z AUTO 04023KT 10SM CLR M12/M14 A2946 RMK AO2 PK WND 05026/0750 SLP986 T11161142

More Conditions Fewer Conditions

Pressure 29.49 in
Visibility 10.0 miles
Clouds Clear
Windchill -10 °F
Dew Point 6 °F
Humidity 81%
Rainfall 0.00 in
Snow Depth Not available.
UV 0 out of 12
Pollen Not available.
Air Quality Not available.
Flu Activity Not available.
METAR PATC 010755Z AUTO 04023KT 10SM CLR M12/M14 A2946 RMK AO2 PK WND 05026/0750 SLP986 T11161142

More Conditions Fewer Conditions

10-Day Weather Forecast

Almanac

Astronomy

Nov. 01, 2014 Rise Set
Actual Time
Civil Twilight
Nautical Twilight
Astronomical Twilight
Moon
Length of Visible Light
Length of Day
Tomorrow will be .
, % of the Moon is Illuminated

Today's Extremes

State Highs State Lows

Community

WunderPhotos

Upload Photos

1,766,871 photos uploaded!

WunderBlogs® & News

Nearby

Air Quality

  Air Quality AQ Index Pollutant
Not available.

Snow Depth

Station Depth Elevation

Earthquake Activity

City Distance Mag. Time & Date
Minimum magnitude displayed is 2.5.

Coastal Water Temperatures

Place Temperature

Nearby Weather Stations